Time;durP1;ratioP1;P1;durP2;ratioP2;P2;SDS_P1;SDS_P2;PMS_P1;PMS_P2;Temp;Humidity;BMP_temperature;BMP_pressure;BME280_temperature;BME280_humidity;BME280_pressure;Samples;Min_cycle;Max_cycle;Signal;HPM_P1;HPM_P2
2022/01/20 00:02:20;;;;;;;12.90;9.45;;;3.40;99.90;;;;;;5060791;28;20266;-52
2022/01/20 00:05:03;;;;;;;15.23;8.90;;;3.40;99.90;;;;;;5060039;28;20221;-52
2022/01/20 00:08:30;;;;;;;12.38;9.35;;;3.40;99.90;;;;;;5060074;28;20225;-47
2022/01/20 00:27:11;;;;;;;14.05;10.18;;;3.50;99.90;;;;;;5058965;28;20247;-51
2022/01/20 00:30:12;;;;;;;15.27;10.18;;;3.50;99.90;;;;;;5059749;28;20211;-50
2022/01/20 00:32:35;;;;;;;14.00;10.77;;;3.50;99.90;;;;;;5059216;28;20252;-49
2022/01/20 00:35:12;;;;;;;13.80;10.05;;;3.50;99.90;;;;;;5063891;28;20217;-55
2022/01/20 00:37:39;;;;;;;18.20;9.63;;;3.40;99.90;;;;;;5063895;28;20208;-54
2022/01/20 00:40:07;;;;;;;12.43;9.35;;;3.40;99.90;;;;;;5060224;28;20220;-49
2022/01/20 00:42:35;;;;;;;15.98;9.95;;;3.30;99.90;;;;;;5059806;28;20208;-55
2022/01/20 00:45:04;;;;;;;15.27;11.20;;;3.20;99.90;;;;;;5059489;28;20220;-50
2022/01/20 00:47:31;;;;;;;11.63;8.73;;;3.30;99.90;;;;;;5059746;28;20271;-49
2022/01/20 00:49:59;;;;;;;13.40;9.98;;;3.40;99.90;;;;;;5059318;28;20216;-52
2022/01/20 00:52:26;;;;;;;12.75;9.80;;;3.40;99.90;;;;;;5060074;28;20209;-48
2022/01/20 00:54:54;;;;;;;16.00;9.35;;;3.50;99.90;;;;;;5059644;28;20220;-48
2022/01/20 00:57:21;;;;;;;18.13;9.25;;;3.50;99.90;;;;;;5059502;28;20558;-50
2022/01/20 00:59:48;;;;;;;16.60;8.55;;;3.60;99.90;;;;;;5059323;28;20247;-49
2022/01/20 01:02:15;;;;;;;14.55;9.05;;;3.60;99.90;;;;;;5060077;28;20274;-50
2022/01/20 01:04:43;;;;;;;11.85;8.50;;;3.60;99.90;;;;;;5055436;28;20286;-51
2022/01/20 01:09:45;;;;;;;11.52;8.57;;;3.60;99.90;;;;;;5079311;28;20207;-52
2022/01/20 01:12:17;;;;;;;10.88;8.20;;;3.60;99.90;;;;;;5078993;28;20234;-53
2022/01/20 01:14:50;;;;;;;9.07;7.45;;;3.60;99.90;;;;;;5078065;28;20225;-51
2022/01/20 01:20:13;;;;;;;11.50;7.25;;;3.70;99.90;;;;;;5079147;28;20239;-52
2022/01/20 01:22:40;;;;;;;10.55;7.82;;;3.70;99.90;;;;;;5078940;28;20222;-51
2022/01/20 01:25:08;;;;;;;12.90;8.23;;;3.70;99.90;;;;;;5078903;28;20244;-54
2022/01/20 01:27:39;;;;;;;10.35;7.03;;;3.60;99.90;;;;;;5082076;28;20274;-50
2022/01/20 01:30:19;;;;;;;11.50;7.32;;;3.60;99.90;;;;;;5082936;28;20499;-52
2022/01/20 01:32:49;;;;;;;15.32;8.13;;;3.50;99.90;;;;;;5082482;28;20209;-53
2022/01/20 01:35:20;;;;;;;10.60;6.90;;;3.50;99.90;;;;;;5082488;28;20262;-52
2022/01/20 01:40:38;;;;;;;8.43;5.30;;;3.20;99.90;;;;;;5082468;28;20326;-54
2022/01/20 01:43:14;;;;;;;6.80;4.93;;;3.20;99.90;;;;;;5082690;28;20200;-55
2022/01/20 01:45:41;;;;;;;5.15;4.65;;;3.20;99.90;;;;;;5082354;28;20245;-54
2022/01/20 01:48:09;;;;;;;5.75;3.33;;;3.20;99.90;;;;;;5082763;28;20262;-55
2022/01/20 01:50:37;;;;;;;4.65;4.25;;;3.20;99.90;;;;;;5082161;28;20200;-50
2022/01/20 01:53:06;;;;;;;5.70;3.80;;;3.20;99.90;;;;;;5082723;28;20204;-54
2022/01/20 01:55:35;;;;;;;4.78;4.28;;;3.30;99.90;;;;;;5082083;28;20207;-56
2022/01/20 01:58:03;;;;;;;5.90;3.63;;;3.30;99.90;;;;;;5082387;28;20247;-50
2022/01/20 02:00:31;;;;;;;5.65;3.67;;;3.50;99.90;;;;;;5082148;28;20394;-50
2022/01/20 02:03:00;;;;;;;4.47;3.63;;;3.50;99.90;;;;;;5082209;28;20402;-49
2022/01/20 02:05:30;;;;;;;6.20;3.80;;;3.70;99.90;;;;;;5081985;28;20207;-51
2022/01/20 02:19:07;;;;;;;4.75;3.65;;;3.90;99.90;;;;;;5087393;28;20205;-55
2022/01/20 02:21:45;;;;;;;3.17;2.88;;;3.90;99.90;;;;;;5083981;28;20203;-52
2022/01/20 02:24:13;;;;;;;8.88;4.20;;;4.00;99.90;;;;;;5081665;28;20589;-48
2022/01/20 02:26:40;;;;;;;8.73;4.57;;;3.90;99.90;;;;;;5080660;28;20200;-54
2022/01/20 02:29:08;;;;;;;11.73;6.45;;;4.00;99.90;;;;;;5081343;28;20267;-49
2022/01/20 02:31:35;;;;;;;13.02;5.63;;;3.90;99.90;;;;;;5081667;28;20205;-49
2022/01/20 02:34:03;;;;;;;13.07;6.05;;;4.00;99.90;;;;;;5081682;28;20213;-54
2022/01/20 02:36:31;;;;;;;7.28;5.30;;;4.00;99.90;;;;;;5081299;28;20207;-50
2022/01/20 02:39:06;;;;;;;12.38;6.00;;;4.10;99.90;;;;;;5080783;28;20207;-48
2022/01/20 02:47:13;;;;;;;2.83;2.42;;;4.20;99.90;;;;;;5081131;28;20221;-48
2022/01/20 02:49:40;;;;;;;2.25;2.05;;;4.20;99.90;;;;;;5081798;28;20243;-48
2022/01/20 02:52:08;;;;;;;3.08;2.78;;;4.00;99.90;;;;;;5081514;28;20196;-54
2022/01/20 02:54:35;;;;;;;3.00;2.70;;;3.90;99.90;;;;;;5081650;28;20229;-50
2022/01/20 02:57:04;;;;;;;3.30;3.00;;;3.80;99.90;;;;;;5081120;28;20203;-50
2022/01/20 02:59:35;;;;;;;2.13;2.00;;;3.70;99.90;;;;;;5081217;28;20258;-50
2022/01/20 03:02:04;;;;;;;3.00;2.80;;;3.80;99.90;;;;;;5081120;28;20208;-52
2022/01/20 03:04:32;;;;;;;2.63;2.15;;;3.70;99.90;;;;;;5080913;28;20221;-52
2022/01/20 03:07:00;;;;;;;2.97;2.67;;;3.70;99.90;;;;;;5080713;28;20204;-53
2022/01/20 03:09:27;;;;;;;2.30;2.10;;;3.80;99.90;;;;;;5081358;28;20540;-52
2022/01/20 03:11:54;;;;;;;5.43;4.15;;;3.70;99.90;;;;;;5081116;28;20200;-51
2022/01/20 03:14:21;;;;;;;3.00;2.70;;;3.80;99.90;;;;;;5080710;28;20216;-50
2022/01/20 03:16:49;;;;;;;6.32;3.45;;;3.80;99.90;;;;;;5080784;28;20205;-49
2022/01/20 03:19:17;;;;;;;3.15;2.30;;;3.80;99.90;;;;;;5080414;28;20435;-52
2022/01/20 03:21:44;;;;;;;3.13;2.50;;;3.90;99.90;;;;;;5080960;28;20200;-53
2022/01/20 03:24:12;;;;;;;2.70;2.50;;;3.90;99.90;;;;;;5080422;28;20250;-51
2022/01/20 03:26:40;;;;;;;2.70;2.47;;;3.80;99.90;;;;;;5081107;28;20534;-53
2022/01/20 03:29:10;;;;;;;3.10;2.65;;;3.90;99.90;;;;;;5080309;28;20217;-48
2022/01/20 03:31:37;;;;;;;3.67;2.50;;;3.90;99.90;;;;;;5080645;28;20227;-50
2022/01/20 03:34:06;;;;;;;4.18;2.83;;;3.90;99.90;;;;;;5057051;28;20257;-49
2022/01/20 03:36:34;;;;;;;3.30;3.00;;;3.90;99.90;;;;;;5072112;28;20236;-52
2022/01/20 03:39:03;;;;;;;5.15;4.25;;;3.90;99.90;;;;;;5080623;28;20246;-50
2022/01/20 03:41:30;;;;;;;3.10;2.80;;;3.90;99.90;;;;;;5079785;28;20205;-53
2022/01/20 03:43:57;;;;;;;2.85;2.60;;;3.90;99.90;;;;;;5080270;28;20547;-49
2022/01/20 03:46:25;;;;;;;2.10;2.00;;;4.00;99.90;;;;;;5079706;28;20238;-51
2022/01/20 03:48:56;;;;;;;2.88;2.65;;;3.90;99.90;;;;;;5080001;28;20227;-53
2022/01/20 03:51:25;;;;;;;2.88;2.67;;;3.90;99.90;;;;;;5079795;28;20188;-49
2022/01/20 03:53:54;;;;;;;4.88;3.40;;;3.90;99.90;;;;;;5080598;28;20267;-51
2022/01/20 03:56:22;;;;;;;2.88;2.67;;;3.90;99.90;;;;;;5079766;28;20239;-49
2022/01/20 03:58:51;;;;;;;4.18;3.40;;;3.90;99.90;;;;;;5081927;28;20332;-51
2022/01/20 04:01:19;;;;;;;4.00;2.17;;;3.90;99.90;;;;;;5086728;28;20201;-54
2022/01/20 04:03:47;;;;;;;5.15;3.53;;;3.90;99.90;;;;;;5081489;28;20221;-50
2022/01/20 04:06:15;;;;;;;5.22;3.08;;;4.00;99.90;;;;;;5079870;28;20203;-49
2022/01/20 04:08:46;;;;;;;3.55;2.83;;;3.90;99.90;;;;;;5079774;28;20251;-53
2022/01/20 04:11:33;;;;;;;5.63;2.70;;;4.00;99.90;;;;;;5079960;28;20197;-52
2022/01/20 04:14:03;;;;;;;3.22;2.95;;;4.00;99.90;;;;;;5079113;28;20451;-51
2022/01/20 04:17:01;;;;;;;8.32;3.33;;;4.00;99.90;;;;;;5079949;28;20504;-54
2022/01/20 04:19:30;;;;;;;4.13;2.95;;;4.00;99.90;;;;;;5079656;28;20216;-49
2022/01/20 04:22:02;;;;;;;5.13;3.45;;;4.00;99.90;;;;;;5079921;28;20204;-50
2022/01/20 04:24:29;;;;;;;4.47;2.58;;;4.00;99.90;;;;;;5079540;28;20447;-52
2022/01/20 04:26:58;;;;;;;9.55;3.00;;;4.10;99.90;;;;;;5079707;28;20212;-53
2022/01/20 04:29:25;;;;;;;3.28;2.17;;;4.00;99.90;;;;;;5081755;28;20251;-54
2022/01/20 04:31:53;;;;;;;6.07;2.58;;;3.90;99.90;;;;;;5082550;28;20197;-52
2022/01/20 04:34:20;;;;;;;4.40;2.63;;;3.90;99.90;;;;;;5082178;28;20243;-49
2022/01/20 04:36:50;;;;;;;4.22;2.40;;;4.00;99.90;;;;;;5081181;28;20228;-49
2022/01/20 04:39:21;;;;;;;3.97;2.17;;;3.90;99.90;;;;;;5081180;28;20201;-51
2022/01/20 04:41:51;;;;;;;2.78;2.25;;;3.80;99.90;;;;;;5079497;28;20200;-55
2022/01/20 04:44:33;;;;;;;5.30;2.80;;;3.80;99.90;;;;;;5079555;28;20223;-52
2022/01/20 04:58:05;;;;;;;7.53;2.08;;;3.80;99.90;;;;;;5078863;28;20204;-52
2022/01/20 05:00:33;;;;;;;3.33;2.10;;;3.80;99.90;;;;;;5071645;28;20444;-50
2022/01/20 05:03:03;;;;;;;6.72;2.13;;;3.70;99.90;;;;;;5067330;28;20230;-51
2022/01/20 05:05:32;;;;;;;3.25;1.98;;;3.70;99.90;;;;;;5046412;28;20205;-52
2022/01/20 05:08:01;;;;;;;2.25;1.33;;;3.70;99.90;;;;;;5049258;28;20372;-50
2022/01/20 05:10:33;;;;;;;2.75;1.50;;;3.70;99.90;;;;;;5049034;28;20201;-50
2022/01/20 05:15:28;;;;;;;5.40;3.13;;;3.70;99.90;;;;;;5062997;28;20228;-49
2022/01/20 05:17:56;;;;;;;3.17;2.38;;;3.70;99.90;;;;;;5079011;28;20204;-52
2022/01/20 05:20:23;;;;;;;10.15;3.60;;;3.70;99.90;;;;;;5063486;28;20193;-52
2022/01/20 05:22:50;;;;;;;4.97;1.85;;;3.70;99.90;;;;;;5063297;28;20224;-53
2022/01/20 05:25:17;;;;;;;3.63;1.33;;;3.60;99.90;;;;;;5062626;28;20212;-52
2022/01/20 05:27:45;;;;;;;1.55;0.95;;;3.60;99.90;;;;;;5067786;28;20238;-52
2022/01/20 05:30:13;;;;;;;5.65;1.50;;;3.50;99.90;;;;;;5072817;28;20223;-53
2022/01/20 05:32:40;;;;;;;4.93;2.20;;;3.40;99.90;;;;;;5082576;28;20194;-51
2022/01/20 05:35:09;;;;;;;3.00;1.40;;;3.40;99.90;;;;;;5082710;28;20456;-51
2022/01/20 05:37:37;;;;;;;8.77;2.00;;;3.40;99.90;;;;;;5082144;28;20291;-52
2022/01/20 05:40:05;;;;;;;6.72;2.42;;;3.40;99.90;;;;;;5082652;28;20246;-51
2022/01/20 05:42:32;;;;;;;9.05;2.30;;;3.30;99.90;;;;;;5086942;28;20494;-54
2022/01/20 05:44:59;;;;;;;2.50;1.42;;;3.30;99.90;;;;;;5087905;28;20287;-49
2022/01/20 05:47:29;;;;;;;7.22;2.10;;;3.20;99.90;;;;;;5082309;28;20205;-50
2022/01/20 05:49:56;;;;;;;2.10;1.90;;;3.20;99.90;;;;;;5077699;28;20228;-50
2022/01/20 05:52:23;;;;;;;5.85;2.38;;;3.30;99.90;;;;;;5050730;28;20272;-47
2022/01/20 05:54:51;;;;;;;1.67;1.35;;;3.20;99.90;;;;;;5046470;28;20617;-48
2022/01/20 05:57:19;;;;;;;2.95;1.63;;;3.10;99.90;;;;;;5071761;28;20377;-52
2022/01/20 05:59:46;;;;;;;4.10;1.50;;;3.10;99.90;;;;;;5082309;28;20295;-51
2022/01/20 06:02:28;;;;;;;2.90;1.73;;;3.10;99.90;;;;;;5082861;28;20223;-47
2022/01/20 06:04:55;;;;;;;1.80;1.25;;;2.80;99.90;;;;;;5082401;28;20219;-51
2022/01/20 06:07:23;;;;;;;3.78;1.65;;;2.70;99.90;;;;;;5082746;28;20245;-49
2022/01/20 06:09:50;;;;;;;4.60;1.35;;;2.50;99.90;;;;;;5081847;28;20246;-50
2022/01/20 06:12:18;;;;;;;9.07;3.50;;;2.50;99.90;;;;;;5082606;28;20197;-52
2022/01/20 06:14:45;;;;;;;2.80;1.55;;;2.40;99.90;;;;;;5081347;28;20214;-51
2022/01/20 06:17:13;;;;;;;5.30;2.88;;;2.40;99.90;;;;;;5082344;28;20467;-53
2022/01/20 06:19:42;;;;;;;1.63;1.30;;;2.20;99.90;;;;;;5082324;28;20361;-50
2022/01/20 06:22:13;;;;;;;6.35;1.88;;;2.10;99.90;;;;;;5081873;28;20199;-54
2022/01/20 06:24:40;;;;;;;5.32;2.38;;;2.20;99.90;;;;;;5082007;28;20654;-50
2022/01/20 06:27:07;;;;;;;3.60;2.28;;;2.20;99.90;;;;;;5081515;28;20236;-51
2022/01/20 06:29:35;;;;;;;4.63;1.40;;;2.10;99.90;;;;;;5081991;28;20422;-52
2022/01/20 06:32:02;;;;;;;4.30;3.08;;;2.10;99.90;;;;;;5081410;28;20202;-50
2022/01/20 06:34:30;;;;;;;2.45;1.42;;;2.10;99.90;;;;;;5081513;28;20580;-50
2022/01/20 06:36:57;;;;;;;18.48;4.65;;;2.00;99.90;;;;;;5081659;28;20241;-52
2022/01/20 06:39:25;;;;;;;3.70;3.10;;;2.00;99.90;;;;;;5082264;28;20259;-49
2022/01/20 06:41:52;;;;;;;5.00;1.70;;;2.00;99.90;;;;;;5081736;28;20202;-52
2022/01/20 06:44:21;;;;;;;9.65;2.75;;;1.90;99.90;;;;;;5080936;28;20269;-51
2022/01/20 06:46:51;;;;;;;5.35;2.10;;;1.90;99.90;;;;;;5054248;28;20211;-51
2022/01/20 06:49:18;;;;;;;3.35;2.97;;;1.90;99.90;;;;;;5047815;28;20216;-51
2022/01/20 06:51:46;;;;;;;4.75;1.88;;;1.90;99.90;;;;;;5050454;28;20269;-51
2022/01/20 06:54:14;;;;;;;2.10;1.42;;;1.90;99.90;;;;;;5052394;28;20237;-51
2022/01/20 06:56:42;;;;;;;6.22;2.22;;;1.80;99.90;;;;;;5050835;28;20263;-50
2022/01/20 06:59:14;;;;;;;1.63;1.25;;;1.70;99.90;;;;;;5058539;28;20207;-52
2022/01/20 07:01:43;;;;;;;6.35;2.03;;;1.80;99.90;;;;;;5059594;28;20439;-53
2022/01/20 07:04:13;;;;;;;5.35;2.45;;;1.80;99.90;;;;;;5058767;28;20224;-50
2022/01/20 07:06:41;;;;;;;3.80;1.60;;;1.70;99.90;;;;;;5052489;28;20432;-52
2022/01/20 07:09:10;;;;;;;6.82;2.33;;;1.80;99.90;;;;;;5049160;28;20242;-51
2022/01/20 07:11:39;;;;;;;4.22;2.78;;;1.80;99.90;;;;;;5048025;28;20200;-50
2022/01/20 07:14:08;;;;;;;6.05;2.78;;;1.80;99.90;;;;;;5052015;28;20549;-51
2022/01/20 07:16:35;;;;;;;6.47;2.78;;;1.90;99.90;;;;;;5049700;28;20394;-53
2022/01/20 07:19:03;;;;;;;3.58;2.95;;;2.00;99.90;;;;;;5052758;28;20242;-50
2022/01/20 07:21:30;;;;;;;6.60;2.28;;;2.30;99.90;;;;;;5063733;28;20196;-53
2022/01/20 07:23:58;;;;;;;4.85;2.40;;;2.70;99.90;;;;;;5064112;28;20403;-56
2022/01/20 07:26:26;;;;;;;6.28;1.50;;;3.00;99.90;;;;;;5061870;28;20203;-49
2022/01/20 07:28:53;;;;;;;4.20;1.88;;;3.20;99.90;;;;;;5060589;28;20240;-51
2022/01/20 07:31:22;;;;;;;15.05;3.22;;;3.20;99.90;;;;;;5060530;28;20201;-55
2022/01/20 07:33:51;;;;;;;5.15;1.90;;;3.20;99.90;;;;;;5060052;28;20217;-50
2022/01/20 07:36:18;;;;;;;5.07;3.03;;;3.20;99.90;;;;;;5060216;28;20430;-51
2022/01/20 07:38:46;;;;;;;3.33;2.22;;;3.20;99.90;;;;;;5060271;28;20259;-49
2022/01/20 07:41:14;;;;;;;1.58;1.13;;;3.20;99.90;;;;;;5059930;28;20250;-51
2022/01/20 07:43:41;;;;;;;5.30;1.40;;;3.30;99.90;;;;;;5060758;28;20228;-52
2022/01/20 07:46:09;;;;;;;2.38;1.70;;;3.30;99.90;;;;;;5060825;28;20515;-52
2022/01/20 07:48:36;;;;;;;3.40;1.77;;;3.40;99.90;;;;;;5062029;28;20205;-56
2022/01/20 07:51:05;;;;;;;7.70;2.75;;;3.40;99.90;;;;;;5060715;28;20196;-53
2022/01/20 07:53:34;;;;;;;9.55;2.20;;;3.40;99.90;;;;;;5060182;28;20588;-49
2022/01/20 07:56:03;;;;;;;10.77;3.20;;;3.40;99.90;;;;;;5059900;28;20200;-48
2022/01/20 07:58:30;;;;;;;9.48;1.83;;;3.40;99.90;;;;;;5060253;28;20485;-52
2022/01/20 08:00:57;;;;;;;7.35;2.47;;;3.40;99.90;;;;;;5060516;28;20660;-50
2022/01/20 08:03:25;;;;;;;9.75;2.22;;;3.40;99.90;;;;;;5060081;28;20599;-51
2022/01/20 08:05:53;;;;;;;9.05;1.98;;;3.50;99.90;;;;;;5060378;28;20519;-49
2022/01/20 08:08:20;;;;;;;5.88;2.90;;;3.60;99.90;;;;;;5064230;28;20197;-53
2022/01/20 08:10:47;;;;;;;5.22;1.75;;;3.60;99.90;;;;;;5064831;28;20418;-55
2022/01/20 08:13:15;;;;;;;4.03;1.50;;;3.60;99.90;;;;;;5062187;28;20544;-49
2022/01/20 08:15:46;;;;;;;5.50;1.63;;;3.60;99.90;;;;;;5063507;28;20196;-52
2022/01/20 08:18:14;;;;;;;3.58;1.38;;;3.50;99.90;;;;;;5061530;28;20247;-51
2022/01/20 08:20:42;;;;;;;2.45;1.10;;;3.20;99.90;;;;;;5059880;28;20200;-54
2022/01/20 08:23:10;;;;;;;4.32;1.50;;;2.50;99.90;;;;;;5060347;28;20218;-51
2022/01/20 08:25:37;;;;;;;1.02;0.73;;;1.90;99.90;;;;;;5060149;28;20537;-54
2022/01/20 08:28:06;;;;;;;0.68;0.68;;;1.50;99.90;;;;;;5060064;28;20199;-51
2022/01/20 08:30:33;;;;;;;1.98;1.20;;;1.30;99.90;;;;;;5059546;28;20223;-51
2022/01/20 08:33:01;;;;;;;1.25;1.00;;;1.20;99.90;;;;;;5060510;28;20223;-54
2022/01/20 08:35:32;;;;;;;1.20;1.10;;;1.00;99.90;;;;;;5059893;28;20202;-54
2022/01/20 08:38:00;;;;;;;0.73;0.60;;;0.90;99.90;;;;;;5063696;28;20202;-56
2022/01/20 08:40:27;;;;;;;2.80;1.05;;;0.80;99.90;;;;;;5063769;28;20407;-55
2022/01/20 08:42:56;;;;;;;2.22;1.10;;;0.90;99.90;;;;;;5063503;28;20428;-56
2022/01/20 08:45:28;;;;;;;1.20;0.77;;;1.00;99.90;;;;;;5063689;28;20207;-56
2022/01/20 08:47:57;;;;;;;1.35;0.57;;;1.00;99.90;;;;;;5063212;28;20379;-58
2022/01/20 08:50:25;;;;;;;1.27;0.70;;;0.90;99.90;;;;;;5062876;28;20361;-54
2022/01/20 08:52:54;;;;;;;1.20;0.90;;;0.90;99.90;;;;;;5063397;28;20199;-55
2022/01/20 08:55:21;;;;;;;2.45;0.70;;;0.90;99.90;;;;;;5063395;28;20241;-55
2022/01/20 08:57:48;;;;;;;2.10;0.80;;;1.00;99.90;;;;;;5064291;28;20203;-53
2022/01/20 09:00:17;;;;;;;4.55;1.60;;;1.00;99.90;;;;;;5064537;28;20199;-60
2022/01/20 09:02:45;;;;;;;0.73;0.70;;;1.00;99.90;;;;;;5063514;28;20506;-56
2022/01/20 09:05:13;;;;;;;2.28;1.25;;;1.00;99.90;;;;;;5067915;28;20491;-57
2022/01/20 09:07:41;;;;;;;2.15;1.02;;;1.00;99.90;;;;;;5067107;28;20407;-51
2022/01/20 09:10:17;;;;;;;7.22;1.80;;;1.00;99.90;;;;;;5063656;28;20403;-53
2022/01/20 09:15:30;;;;;;;1.00;0.90;;;1.00;99.90;;;;;;5063247;28;20557;-54
2022/01/20 09:18:05;;;;;;;6.47;1.10;;;1.00;99.90;;;;;;5063278;28;20199;-55
2022/01/20 09:20:34;;;;;;;1.52;1.05;;;1.00;99.90;;;;;;5062951;28;20577;-55
2022/01/20 09:23:01;;;;;;;3.65;1.38;;;1.10;99.90;;;;;;5064594;28;20356;-60
2022/01/20 09:25:29;;;;;;;7.13;1.83;;;1.10;99.90;;;;;;5063495;28;20227;-57
2022/01/20 09:27:56;;;;;;;6.70;1.60;;;1.20;99.90;;;;;;5062891;28;20509;-56
2022/01/20 09:30:25;;;;;;;1.20;1.10;;;1.20;99.90;;;;;;5063932;28;20311;-51
2022/01/20 09:33:00;;;;;;;1.67;0.98;;;1.20;99.90;;;;;;5063413;28;20196;-54
2022/01/20 09:35:30;;;;;;;8.77;1.67;;;1.20;99.90;;;;;;5063750;28;20241;-56
2022/01/20 09:37:59;;;;;;;7.25;1.50;;;1.20;99.90;;;;;;5063404;28;20199;-55
2022/01/20 09:40:29;;;;;;;7.63;2.45;;;1.20;99.90;;;;;;5063799;28;20223;-52
2022/01/20 09:42:56;;;;;;;4.65;1.45;;;1.20;99.90;;;;;;5065134;28;20446;-52
2022/01/20 09:45:24;;;;;;;4.43;1.75;;;1.30;99.90;;;;;;5064856;28;20245;-55
2022/01/20 09:47:51;;;;;;;6.65;2.45;;;1.20;99.90;;;;;;5063090;28;20279;-55
2022/01/20 09:50:21;;;;;;;2.30;1.60;;;1.20;99.90;;;;;;5064007;28;20223;-58
2022/01/20 09:52:51;;;;;;;4.15;2.13;;;1.30;99.90;;;;;;5064958;28;20257;-58
2022/01/20 09:55:19;;;;;;;4.53;1.30;;;1.30;99.90;;;;;;5064786;28;20329;-59
2022/01/20 09:57:46;;;;;;;4.40;1.20;;;1.00;99.90;;;;;;5065860;28;20200;-55
2022/01/20 10:00:16;;;;;;;2.90;1.40;;;0.70;99.90;;;;;;5065531;28;20506;-54
2022/01/20 10:03:14;;;;;;;2.17;1.15;;;0.70;99.90;;;;;;5067270;28;20203;-58
2022/01/20 10:05:45;;;;;;;1.20;1.10;;;0.70;99.90;;;;;;5064240;28;20323;-54
2022/01/20 10:08:17;;;;;;;1.15;1.05;;;0.60;99.90;;;;;;5062064;28;20199;-55
2022/01/20 10:10:46;;;;;;;2.05;1.08;;;0.50;99.90;;;;;;5062514;28;20285;-52
2022/01/20 10:13:15;;;;;;;1.77;1.08;;;0.60;99.90;;;;;;5061832;28;20234;-54
2022/01/20 10:15:53;;;;;;;1.35;1.30;;;0.70;99.90;;;;;;5062361;28;20199;-55
2022/01/20 10:18:21;;;;;;;1.42;1.33;;;0.90;99.90;;;;;;5061213;28;20222;-55
2022/01/20 10:20:57;;;;;;;1.60;1.50;;;1.00;99.90;;;;;;5062279;28;20262;-51
2022/01/20 10:23:35;;;;;;;4.70;1.45;;;1.00;99.90;;;;;;5061607;28;20220;-54
2022/01/20 10:26:04;;;;;;;0.70;0.70;;;0.90;99.90;;;;;;5062225;28;20640;-54
2022/01/20 10:28:43;;;;;;;5.28;1.60;;;0.90;99.90;;;;;;5061517;28;20200;-55
2022/01/20 10:31:11;;;;;;;1.90;0.93;;;0.90;99.90;;;;;;5062375;28;20230;-53
2022/01/20 10:33:43;;;;;;;2.20;1.00;;;0.80;99.90;;;;;;5062099;28;20223;-50
2022/01/20 10:36:11;;;;;;;1.60;0.85;;;0.80;99.90;;;;;;5056203;28;20210;-54
2022/01/20 10:38:56;;;;;;;1.48;1.33;;;0.80;99.90;;;;;;5052368;28;20249;-53
2022/01/20 10:41:27;;;;;;;2.72;1.40;;;0.80;99.90;;;;;;5054063;28;20215;-51
2022/01/20 10:44:21;;;;;;;2.72;1.63;;;0.70;99.90;;;;;;5052792;28;20555;-53
2022/01/20 10:47:15;;;;;;;1.88;1.00;;;0.60;99.90;;;;;;5054479;28;20188;-56
2022/01/20 10:49:44;;;;;;;1.50;1.40;;;0.60;99.90;;;;;;5049931;28;20227;-50
2022/01/20 10:52:21;;;;;;;6.22;2.15;;;0.50;99.90;;;;;;5052613;28;20227;-49
2022/01/20 10:54:54;;;;;;;7.10;1.90;;;0.50;99.90;;;;;;5049586;28;20230;-49
2022/01/20 10:57:30;;;;;;;2.17;1.35;;;0.40;99.90;;;;;;5048526;28;20205;-54
2022/01/20 11:00:02;;;;;;;6.07;2.22;;;0.50;99.90;;;;;;5048369;28;20204;-50
2022/01/20 11:02:31;;;;;;;2.15;1.13;;;0.50;99.90;;;;;;5049307;28;20279;-51
2022/01/20 11:04:59;;;;;;;0.93;0.77;;;0.40;99.90;;;;;;5049642;28;20241;-49
2022/01/20 11:07:28;;;;;;;1.15;1.05;;;0.50;99.90;;;;;;5055827;28;20207;-51
2022/01/20 11:10:05;;;;;;;1.30;1.20;;;0.50;99.90;;;;;;5048443;28;20216;-50
2022/01/20 11:12:34;;;;;;;0.80;0.80;;;0.40;99.90;;;;;;5044320;28;20218;-53
2022/01/20 11:15:08;;;;;;;8.90;1.55;;;0.40;99.90;;;;;;5048581;28;20216;-55
2022/01/20 11:17:36;;;;;;;3.85;1.17;;;0.60;99.90;;;;;;5050822;28;20207;-53
2022/01/20 11:20:17;;;;;;;3.70;2.05;;;0.60;99.90;;;;;;5049264;28;20204;-56
2022/01/20 11:22:56;;;;;;;2.45;0.93;;;0.60;99.90;;;;;;5051021;28;20208;-52
2022/01/20 11:25:27;;;;;;;1.23;0.93;;;0.60;99.90;;;;;;5053659;28;20204;-55
2022/01/20 11:28:18;;;;;;;6.72;1.50;;;0.80;99.90;;;;;;5072290;28;20252;-51
2022/01/20 11:31:03;;;;;;;4.85;1.75;;;0.90;99.90;;;;;;5080192;28;20218;-54
2022/01/20 11:33:42;;;;;;;2.05;1.35;;;1.00;99.90;;;;;;5080687;28;20224;-53
2022/01/20 11:36:28;;;;;;;1.75;1.15;;;1.20;99.90;;;;;;5079845;28;20199;-52
2022/01/20 11:39:19;;;;;;;2.67;0.70;;;1.20;99.90;;;;;;5080154;28;20190;-52
2022/01/20 11:41:49;;;;;;;0.93;0.73;;;1.30;99.90;;;;;;5080161;28;20431;-49
2022/01/20 11:44:24;;;;;;;0.50;0.50;;;1.30;99.90;;;;;;5080584;28;20222;-52
2022/01/20 11:46:53;;;;;;;3.05;1.58;;;1.20;99.90;;;;;;5079830;28;20559;-53
2022/01/20 11:49:33;;;;;;;1.10;1.00;;;1.30;99.90;;;;;;5079992;28;20237;-51
2022/01/20 11:52:07;;;;;;;2.35;0.73;;;1.30;99.90;;;;;;5080761;28;20195;-51
2022/01/20 11:54:41;;;;;;;2.55;0.60;;;1.30;99.90;;;;;;5080294;28;20222;-51
2022/01/20 11:57:30;;;;;;;5.38;1.35;;;1.40;99.90;;;;;;5080726;28;20199;-54
2022/01/20 12:00:04;;;;;;;2.35;1.13;;;1.50;99.90;;;;;;5080846;28;20198;-52
2022/01/20 12:02:39;;;;;;;4.22;1.52;;;1.60;99.90;;;;;;5080415;28;20198;-50
2022/01/20 12:05:29;;;;;;;7.50;1.85;;;1.50;99.90;;;;;;5079741;28;20226;-53
2022/01/20 12:08:20;;;;;;;1.35;1.25;;;1.50;99.90;;;;;;5081169;28;20195;-52
2022/01/20 12:11:08;;;;;;;2.60;1.52;;;1.60;99.90;;;;;;5079988;28;20234;-54
2022/01/20 12:13:47;;;;;;;4.00;1.50;;;1.60;99.90;;;;;;5080092;28;20446;-50
2022/01/20 12:16:19;;;;;;;2.75;1.02;;;1.50;99.90;;;;;;5079654;28;20256;-50
2022/01/20 12:18:52;;;;;;;3.05;1.30;;;1.50;99.90;;;;;;5080217;28;20206;-50
2022/01/20 12:21:19;;;;;;;1.08;0.93;;;1.50;99.90;;;;;;5079799;28;20276;-49
2022/01/20 12:23:48;;;;;;;1.52;0.73;;;1.60;99.90;;;;;;5080260;28;20227;-50
2022/01/20 12:26:15;;;;;;;4.25;1.33;;;1.60;99.90;;;;;;5080504;28;20202;-54
2022/01/20 12:28:43;;;;;;;1.00;0.88;;;1.70;99.90;;;;;;5083535;28;20206;-49
2022/01/20 12:31:13;;;;;;;7.72;2.50;;;1.70;99.90;;;;;;5080082;28;20392;-51
2022/01/20 12:33:45;;;;;;;10.73;1.30;;;1.70;99.90;;;;;;5079961;28;20409;-51
2022/01/20 12:36:17;;;;;;;3.70;1.33;;;1.70;99.90;;;;;;5079939;28;20202;-51
2022/01/20 12:38:49;;;;;;;4.20;1.40;;;1.50;99.90;;;;;;5080073;28;20199;-50
2022/01/20 12:41:20;;;;;;;2.78;2.58;;;1.60;99.90;;;;;;5080565;28;20521;-52
2022/01/20 12:43:58;;;;;;;2.45;1.67;;;1.60;99.90;;;;;;5080468;28;20371;-52
2022/01/20 12:46:32;;;;;;;4.55;1.42;;;1.60;99.90;;;;;;5081429;28;20202;-51
2022/01/20 12:49:11;;;;;;;7.45;1.65;;;1.70;99.90;;;;;;5080477;28;20417;-51
2022/01/20 12:51:41;;;;;;;2.38;1.33;;;1.80;99.90;;;;;;5079586;28;20467;-55
2022/01/20 12:54:21;;;;;;;2.72;1.30;;;1.80;99.90;;;;;;5079352;28;20218;-50
2022/01/20 12:56:52;;;;;;;1.40;1.23;;;1.70;99.90;;;;;;5079562;28;20197;-51
2022/01/20 12:59:28;;;;;;;3.80;1.20;;;1.70;99.90;;;;;;5079847;28;20202;-49
2022/01/20 13:02:09;;;;;;;4.13;1.67;;;1.70;99.90;;;;;;5079294;28;20199;-50
2022/01/20 13:04:37;;;;;;;3.58;2.17;;;1.70;99.90;;;;;;5079531;28;20260;-50
2022/01/20 13:07:08;;;;;;;4.32;1.35;;;1.60;99.90;;;;;;5079091;28;20206;-50
2022/01/20 13:09:42;;;;;;;6.68;1.42;;;1.50;99.90;;;;;;5080198;28;20468;-52
2022/01/20 13:12:12;;;;;;;2.05;0.82;;;1.60;99.90;;;;;;5079735;28;20271;-52
2022/01/20 13:14:46;;;;;;;4.55;2.05;;;1.60;99.90;;;;;;5081546;28;20227;-49
2022/01/20 13:17:22;;;;;;;3.83;1.45;;;1.50;99.90;;;;;;5079802;28;20455;-48
2022/01/20 13:19:54;;;;;;;4.50;2.60;;;1.40;99.90;;;;;;5079895;28;20509;-49
2022/01/20 13:22:22;;;;;;;2.78;1.20;;;1.60;99.90;;;;;;5081661;28;20374;-53
2022/01/20 13:24:50;;;;;;;7.10;1.13;;;1.60;99.90;;;;;;5083622;28;20223;-54
2022/01/20 13:27:17;;;;;;;3.70;1.80;;;1.60;99.90;;;;;;5084037;28;20209;-51
2022/01/20 13:29:49;;;;;;;4.28;1.50;;;1.60;99.90;;;;;;5084021;28;20209;-53
2022/01/20 13:32:17;;;;;;;5.78;1.05;;;1.60;99.90;;;;;;5083401;28;20248;-49
2022/01/20 13:35:11;;;;;;;11.10;1.58;;;1.60;99.90;;;;;;5083295;28;20691;-50
2022/01/20 13:37:39;;;;;;;3.20;1.52;;;1.60;99.90;;;;;;5082587;28;20396;-48
2022/01/20 13:40:08;;;;;;;2.75;0.95;;;1.60;99.90;;;;;;5082515;28;20214;-51
2022/01/20 13:44:59;;;;;;;2.50;1.38;;;1.60;99.90;;;;;;5083240;28;20217;-50
2022/01/20 13:45:26;;;;;;;3.10;1.10;;;1.60;99.90;;;;;;5082442;28;20194;-50
2022/01/20 13:48:01;;;;;;;2.67;0.80;;;1.60;99.90;;;;;;5082604;28;20198;-49
2022/01/20 13:50:31;;;;;;;1.70;1.30;;;1.60;99.90;;;;;;5082472;28;20218;-48
2022/01/20 13:53:02;;;;;;;1.25;1.10;;;1.60;99.90;;;;;;5082300;28;20217;-51
2022/01/20 13:55:32;;;;;;;6.90;1.55;;;1.50;99.90;;;;;;5082268;28;20195;-49
2022/01/20 13:58:01;;;;;;;5.05;2.08;;;1.60;99.90;;;;;;5082200;28;20232;-49
2022/01/20 14:00:32;;;;;;;3.42;1.75;;;1.50;99.90;;;;;;5082591;28;20409;-50
2022/01/20 14:03:01;;;;;;;4.25;1.38;;;1.50;99.90;;;;;;5081897;28;20260;-54
2022/01/20 14:05:32;;;;;;;3.10;1.90;;;1.50;99.90;;;;;;5082400;28;20199;-51
2022/01/20 14:08:01;;;;;;;6.63;1.63;;;1.50;99.90;;;;;;5083736;28;20264;-50
2022/01/20 14:10:29;;;;;;;2.28;1.45;;;1.40;99.90;;;;;;5088333;28;20222;-50
2022/01/20 14:12:57;;;;;;;8.10;1.80;;;1.50;99.90;;;;;;5086715;28;20198;-51